Time;durP1;ratioP1;P1;durP2;ratioP2;P2;SDS_P1;SDS_P2;PMS_P1;PMS_P2;Temp;Humidity;BMP_temperature;BMP_pressure;BME280_temperature;BME280_humidity;BME280_pressure;Samples;Min_cycle;Max_cycle;Signal;HPM_P1;HPM_P2
2022/01/25 00:25:05;;;;;;;55.30;38.83;;;5.20;99.90;;;;;;4858379;29;20040;-80
2022/01/25 00:27:42;;;;;;;57.50;39.03;;;5.20;99.90;;;;;;4842006;29;20445;-80
2022/01/25 00:30:27;;;;;;;49.35;36.67;;;5.20;99.90;;;;;;4830657;29;20417;-80
2022/01/25 00:32:53;;;;;;;55.20;38.55;;;5.20;99.90;;;;;;4809113;29;20045;-80
2022/01/25 00:35:20;;;;;;;55.47;37.80;;;5.20;99.90;;;;;;4816330;29;20415;-80
2022/01/25 00:37:46;;;;;;;55.95;38.20;;;5.20;99.90;;;;;;4844566;29;20036;-80
2022/01/25 00:40:12;;;;;;;53.60;38.22;;;5.10;99.90;;;;;;4828289;29;20033;-80
2022/01/25 00:42:39;;;;;;;55.13;37.08;;;5.10;99.90;;;;;;4872198;29;20099;-80
2022/01/25 00:45:08;;;;;;;51.92;36.05;;;5.10;99.90;;;;;;4831416;29;20024;-80
2022/01/25 00:47:34;;;;;;;49.17;34.70;;;5.20;99.90;;;;;;4813459;29;20025;-80
2022/01/25 00:50:00;;;;;;;54.35;38.75;;;5.10;99.90;;;;;;4813502;29;20037;-80
2022/01/25 00:55:14;;;;;;;56.75;38.72;;;5.10;99.90;;;;;;4821234;29;20400;-80
2022/01/25 00:57:41;;;;;;;55.72;38.88;;;5.20;99.90;;;;;;4854668;29;20033;-80
2022/01/25 01:00:10;;;;;;;48.40;35.50;;;5.20;99.90;;;;;;4811450;29;20029;-80
2022/01/25 01:02:36;;;;;;;49.45;35.80;;;5.20;99.90;;;;;;4827142;29;20029;-80
2022/01/25 01:05:03;;;;;;;53.38;36.88;;;5.10;99.90;;;;;;4813879;29;20048;-80
2022/01/25 01:07:29;;;;;;;53.03;38.13;;;5.10;99.90;;;;;;4827458;29;20520;-80
2022/01/25 01:09:56;;;;;;;55.88;39.95;;;5.10;99.90;;;;;;4825517;29;20045;-80
2022/01/25 01:13:04;;;;;;;53.88;38.88;;;5.10;99.90;;;;;;4871416;29;20025;-80
2022/01/25 01:29:15;;;;;;;46.53;33.53;;;5.10;99.90;;;;;;4826153;29;20033;-80
2022/01/25 01:34:50;;;;;;;53.60;38.60;;;5.10;99.90;;;;;;4825569;29;20383;-80
2022/01/25 01:47:36;;;;;;;56.13;40.58;;;5.00;99.90;;;;;;4858776;29;20034;-80
2022/01/25 01:50:12;;;;;;;54.40;38.47;;;5.00;99.90;;;;;;4811429;29;20025;-80
2022/01/25 01:52:38;;;;;;;54.22;38.10;;;5.00;99.90;;;;;;4812011;29;20037;-80
2022/01/25 01:55:06;;;;;;;47.60;35.55;;;5.00;99.90;;;;;;4823995;29;20025;-80
2022/01/25 01:57:32;;;;;;;55.63;39.40;;;5.00;99.90;;;;;;4857600;29;20056;-80
2022/01/25 01:59:59;;;;;;;52.63;36.43;;;5.00;99.90;;;;;;4813308;29;20040;-79
2022/01/25 02:02:25;;;;;;;58.33;41.15;;;5.00;99.90;;;;;;4810680;29;20472;-80
2022/01/25 02:04:52;;;;;;;55.97;40.00;;;5.00;99.90;;;;;;4813600;29;20024;-80
2022/01/25 02:07:18;;;;;;;55.85;38.95;;;5.00;99.90;;;;;;4827373;29;20492;-80
2022/01/25 02:09:44;;;;;;;53.88;38.65;;;5.00;99.90;;;;;;4812005;29;20472;-80
2022/01/25 02:12:11;;;;;;;54.65;37.67;;;5.00;99.90;;;;;;4807207;29;20060;-79
2022/01/25 02:14:40;;;;;;;48.95;34.97;;;5.00;99.90;;;;;;4842430;29;20496;-80
2022/01/25 02:17:25;;;;;;;46.88;35.33;;;5.00;99.90;;;;;;4827286;29;20064;-80
2022/01/25 02:22:53;;;;;;;55.10;38.88;;;5.00;99.90;;;;;;4826565;29;20017;-80
2022/01/25 02:25:20;;;;;;;59.35;40.75;;;5.00;99.90;;;;;;4811455;29;20477;-79
2022/01/25 02:27:46;;;;;;;57.78;39.95;;;5.00;99.90;;;;;;4843067;29;20029;-79
2022/01/25 02:30:12;;;;;;;61.55;42.85;;;5.00;99.90;;;;;;4828767;29;20021;-80
2022/01/25 02:32:39;;;;;;;63.95;44.20;;;4.90;99.90;;;;;;4827338;29;20013;-80
2022/01/25 02:35:07;;;;;;;59.90;39.73;;;4.90;99.90;;;;;;4811592;29;20465;-80
2022/01/25 02:37:33;;;;;;;56.92;39.17;;;4.90;99.90;;;;;;4840889;29;20378;-81
2022/01/25 02:40:00;;;;;;;53.15;37.35;;;4.90;99.90;;;;;;4826548;29;20036;-80
2022/01/25 02:42:26;;;;;;;65.80;41.58;;;4.90;99.90;;;;;;4811593;29;20469;-80
2022/01/25 02:44:53;;;;;;;59.03;37.93;;;4.90;99.90;;;;;;4813339;29;20049;-80
2022/01/25 02:50:05;;;;;;;66.57;41.28;;;4.90;99.90;;;;;;4840550;29;20048;-80
2022/01/25 02:52:32;;;;;;;68.30;45.95;;;4.90;99.90;;;;;;4810677;29;20040;-80
2022/01/25 02:54:58;;;;;;;65.10;43.38;;;5.00;99.90;;;;;;4842678;29;20029;-80
2022/01/25 02:57:25;;;;;;;64.07;44.30;;;4.90;99.90;;;;;;4825376;29;20484;-80
2022/01/25 02:59:51;;;;;;;67.45;44.67;;;4.90;99.90;;;;;;4824963;29;20036;-80
2022/01/25 03:02:18;;;;;;;64.18;42.50;;;4.90;99.90;;;;;;4813284;29;20026;-80
2022/01/25 03:04:44;;;;;;;64.53;43.38;;;4.90;99.90;;;;;;4854195;29;20032;-79
2022/01/25 03:07:11;;;;;;;60.00;39.38;;;4.90;99.90;;;;;;4842362;29;21532;-79
2022/01/25 03:09:39;;;;;;;64.72;41.75;;;4.90;99.90;;;;;;4856937;29;20033;-79
2022/01/25 03:12:08;;;;;;;68.67;43.07;;;4.90;99.90;;;;;;4857193;29;20033;-80
2022/01/25 03:14:46;;;;;;;59.75;38.63;;;4.90;99.90;;;;;;4827783;29;20040;-80
2022/01/25 03:17:13;;;;;;;66.70;42.45;;;4.80;99.90;;;;;;4841857;29;20354;-79
2022/01/25 03:24:53;;;;;;;70.13;43.42;;;4.90;99.90;;;;;;4824785;29;20060;-80
2022/01/25 03:27:19;;;;;;;74.13;46.25;;;4.80;99.90;;;;;;4841971;29;20036;-80
2022/01/25 03:29:46;;;;;;;79.15;49.58;;;4.80;99.90;;;;;;4825001;29;20049;-80
2022/01/25 03:32:12;;;;;;;80.85;47.97;;;4.80;99.90;;;;;;4824573;29;20029;-80
2022/01/25 03:34:38;;;;;;;76.22;46.40;;;4.80;99.90;;;;;;4846215;29;20029;-80
2022/01/25 03:37:04;;;;;;;66.15;42.13;;;4.80;99.90;;;;;;4828649;29;20041;-80
2022/01/25 03:39:31;;;;;;;73.30;45.50;;;4.80;99.90;;;;;;4860410;29;20029;-80
2022/01/25 03:41:57;;;;;;;74.53;47.70;;;4.80;99.90;;;;;;4828164;29;20040;-80
2022/01/25 03:44:24;;;;;;;74.88;48.17;;;4.80;99.90;;;;;;4821085;29;20066;-80
2022/01/25 03:52:06;;;;;;;63.42;41.05;;;4.80;99.90;;;;;;4801061;29;20042;-80
2022/01/25 03:54:32;;;;;;;75.63;46.35;;;4.90;99.90;;;;;;4813851;29;20046;-80
2022/01/25 03:56:59;;;;;;;73.90;47.35;;;4.90;99.90;;;;;;4818243;29;20045;-80
2022/01/25 03:59:25;;;;;;;68.10;42.97;;;4.90;99.90;;;;;;4836329;29;20474;-80
2022/01/25 04:01:51;;;;;;;73.18;44.47;;;4.80;99.90;;;;;;4802844;29;20042;-80
2022/01/25 04:04:22;;;;;;;75.23;46.10;;;4.80;99.90;;;;;;4818221;29;20034;-80
2022/01/25 04:06:51;;;;;;;76.65;47.25;;;4.80;99.90;;;;;;4802319;29;20042;-80
2022/01/25 04:09:18;;;;;;;71.70;44.20;;;4.80;99.90;;;;;;4802537;29;20040;-79
2022/01/25 04:11:44;;;;;;;68.30;43.40;;;4.80;99.90;;;;;;4773222;29;20046;-80
2022/01/25 04:14:11;;;;;;;68.22;41.95;;;4.80;99.90;;;;;;4790047;29;20395;-80
2022/01/25 04:16:47;;;;;;;69.85;42.08;;;4.80;99.90;;;;;;4800311;29;20046;-80
2022/01/25 04:19:26;;;;;;;67.45;42.08;;;4.80;99.90;;;;;;4803763;29;20481;-80
2022/01/25 04:27:06;;;;;;;67.75;40.85;;;4.80;99.90;;;;;;4786932;29;20059;-79
2022/01/25 04:29:32;;;;;;;69.05;43.38;;;4.80;99.90;;;;;;4803475;29;20038;-80
2022/01/25 04:31:58;;;;;;;70.60;42.90;;;4.90;99.90;;;;;;4773315;29;20038;-80
2022/01/25 04:34:39;;;;;;;71.80;43.05;;;4.90;99.90;;;;;;4789166;29;20166;-80
2022/01/25 04:51:10;;;;;;;70.95;43.72;;;4.80;99.90;;;;;;4801421;29;20030;-79
2022/01/25 04:53:54;;;;;;;71.55;44.25;;;4.80;99.90;;;;;;4789195;29;20426;-79
2022/01/25 04:56:30;;;;;;;68.60;41.35;;;4.80;99.90;;;;;;4790246;29;20057;-79
2022/01/25 04:59:05;;;;;;;74.28;44.53;;;4.80;99.90;;;;;;4783313;29;20684;-79
2022/01/25 05:01:32;;;;;;;72.03;43.60;;;4.70;99.90;;;;;;4824063;29;20495;-79
2022/01/25 05:04:10;;;;;;;69.30;43.40;;;4.70;99.90;;;;;;4786975;29;20502;-79
2022/01/25 05:06:36;;;;;;;70.18;43.42;;;4.70;99.90;;;;;;4790426;29;20041;-79
2022/01/25 05:09:07;;;;;;;73.32;44.53;;;4.80;99.90;;;;;;4778789;29;20390;-79
2022/01/25 05:11:37;;;;;;;70.95;44.63;;;4.70;99.90;;;;;;4773663;29;20046;-80
2022/01/25 05:16:46;;;;;;;77.05;47.13;;;4.80;99.90;;;;;;4814757;29;20058;-79
2022/01/25 05:24:23;;;;;;;76.57;44.25;;;4.80;99.90;;;;;;4795865;29;20023;-77
2022/01/25 05:26:50;;;;;;;70.90;42.90;;;4.80;99.90;;;;;;4797597;29;20438;-78
2022/01/25 05:29:16;;;;;;;70.88;43.03;;;4.80;99.90;;;;;;4811235;29;20045;-81
2022/01/25 05:31:42;;;;;;;72.40;43.78;;;4.80;99.90;;;;;;4787818;29;20034;-80
2022/01/25 05:34:09;;;;;;;71.40;42.13;;;4.80;99.90;;;;;;4787759;29;20039;-80
2022/01/25 05:36:36;;;;;;;73.47;45.10;;;4.80;99.90;;;;;;4800467;29;20041;-79
2022/01/25 05:39:17;;;;;;;74.35;45.20;;;4.80;99.90;;;;;;4786644;29;20041;-81
2022/01/25 05:41:53;;;;;;;72.30;43.47;;;4.80;99.90;;;;;;4783032;29;20041;-79
2022/01/25 05:46:53;;;;;;;74.40;46.35;;;4.80;99.90;;;;;;4796055;29;20046;-81
2022/01/25 05:49:19;;;;;;;72.13;44.23;;;4.80;99.90;;;;;;4803747;29;20030;-79
2022/01/25 05:51:46;;;;;;;77.35;47.05;;;4.80;99.90;;;;;;4800629;29;20037;-80
2022/01/25 05:54:13;;;;;;;73.13;46.55;;;4.80;99.90;;;;;;4799753;29;20117;-80
2022/01/25 05:56:39;;;;;;;71.63;44.07;;;4.80;99.90;;;;;;4780193;29;20035;-80
2022/01/25 05:59:06;;;;;;;80.07;48.60;;;4.80;99.90;;;;;;4796942;29;21450;-80
2022/01/25 06:01:34;;;;;;;76.00;46.73;;;4.70;99.90;;;;;;4775333;29;20034;-79
2022/01/25 06:04:06;;;;;;;72.65;43.63;;;4.70;99.90;;;;;;4803353;29;20042;-80
2022/01/25 06:06:33;;;;;;;71.55;43.72;;;4.70;99.90;;;;;;4774280;29;20034;-80
2022/01/25 06:08:59;;;;;;;76.18;48.40;;;4.70;99.90;;;;;;4805859;29;20401;-78
2022/01/25 06:11:26;;;;;;;77.13;48.63;;;4.70;99.90;;;;;;4789252;29;20022;-79
2022/01/25 06:13:52;;;;;;;78.32;48.03;;;4.70;99.90;;;;;;4811643;29;20061;-79
2022/01/25 06:16:18;;;;;;;75.00;49.40;;;4.70;99.90;;;;;;4818800;29;20038;-78
2022/01/25 06:18:45;;;;;;;77.13;47.60;;;4.70;99.90;;;;;;4805362;29;20037;-78
2022/01/25 06:21:11;;;;;;;78.17;48.10;;;4.70;99.90;;;;;;4796277;29;20034;-78
2022/01/25 06:23:37;;;;;;;74.38;45.22;;;4.60;99.90;;;;;;4804837;29;20097;-77
2022/01/25 06:26:04;;;;;;;82.25;51.88;;;4.70;99.90;;;;;;4819760;29;20059;-78
2022/01/25 06:28:30;;;;;;;79.53;50.30;;;4.70;99.90;;;;;;4775673;29;20034;-78
2022/01/25 06:30:56;;;;;;;84.85;53.45;;;4.60;99.90;;;;;;4786880;29;20494;-78
2022/01/25 06:33:22;;;;;;;76.93;49.17;;;4.60;99.90;;;;;;4789119;29;20409;-80
2022/01/25 06:35:49;;;;;;;80.28;50.42;;;4.60;99.90;;;;;;4816397;29;20580;-80
2022/01/25 06:38:15;;;;;;;80.88;48.80;;;4.60;99.90;;;;;;4799675;29;20038;-78
2022/01/25 06:40:42;;;;;;;83.70;48.33;;;4.60;99.90;;;;;;4799162;29;20034;-80
2022/01/25 06:43:08;;;;;;;78.37;46.27;;;4.50;99.90;;;;;;4783777;29;20504;-80
2022/01/25 06:45:39;;;;;;;77.95;47.58;;;4.50;99.90;;;;;;4838972;29;20040;-83
2022/01/25 06:48:06;;;;;;;81.28;48.83;;;4.50;99.90;;;;;;4819094;29;20048;-81
2022/01/25 06:50:33;;;;;;;80.88;47.33;;;4.50;99.90;;;;;;4804194;29;20029;-80
2022/01/25 06:52:59;;;;;;;86.82;54.63;;;4.50;99.90;;;;;;4831186;29;20052;-80
2022/01/25 06:55:26;;;;;;;90.33;54.70;;;4.50;99.90;;;;;;4836338;29;20035;-80
2022/01/25 06:57:52;;;;;;;79.68;48.85;;;4.50;99.90;;;;;;4806808;29;20472;-79
2022/01/25 07:00:21;;;;;;;78.30;46.92;;;4.50;99.90;;;;;;4815147;29;20022;-80
2022/01/25 07:02:48;;;;;;;76.15;46.50;;;4.50;99.90;;;;;;4809405;29;20060;-80
2022/01/25 07:05:14;;;;;;;84.05;49.55;;;4.50;99.90;;;;;;4790117;29;20037;-80
2022/01/25 07:07:42;;;;;;;83.65;50.30;;;4.50;99.90;;;;;;4794046;29;20033;-80
2022/01/25 07:10:09;;;;;;;83.93;51.00;;;4.50;99.90;;;;;;4835483;29;20033;-80
2022/01/25 07:12:35;;;;;;;75.43;48.05;;;4.50;99.90;;;;;;4794689;29;20045;-80
2022/01/25 07:15:02;;;;;;;80.93;48.90;;;4.50;99.90;;;;;;4826090;29;20136;-80
2022/01/25 07:17:29;;;;;;;74.75;47.97;;;4.50;99.90;;;;;;4810461;29;20459;-80
2022/01/25 07:19:55;;;;;;;83.70;50.20;;;4.50;99.90;;;;;;4827021;29;20235;-80
2022/01/25 07:22:21;;;;;;;72.53;45.40;;;4.50;99.90;;;;;;4849394;29;20018;-80
2022/01/25 07:24:48;;;;;;;79.80;47.53;;;4.50;99.90;;;;;;4795553;29;20029;-81
2022/01/25 07:27:14;;;;;;;77.72;46.13;;;4.50;99.90;;;;;;4823837;29;20080;-80
2022/01/25 07:29:40;;;;;;;70.83;43.70;;;4.50;99.90;;;;;;4820844;29;20117;-80
2022/01/25 07:32:07;;;;;;;70.97;44.05;;;4.50;99.90;;;;;;4813119;29;20037;-80
2022/01/25 07:34:33;;;;;;;73.50;46.73;;;4.50;99.90;;;;;;4809964;29;20477;-80
2022/01/25 07:37:00;;;;;;;77.93;48.92;;;4.60;99.90;;;;;;4795670;29;20038;-80
2022/01/25 07:39:26;;;;;;;82.17;49.20;;;4.60;99.90;;;;;;4822604;29;20045;-80
2022/01/25 07:41:57;;;;;;;81.85;48.75;;;4.50;99.90;;;;;;4857784;29;20033;-80
2022/01/25 07:44:32;;;;;;;76.93;46.30;;;4.60;99.90;;;;;;4834641;29;20059;-80
2022/01/25 07:47:00;;;;;;;76.57;46.22;;;4.60;99.90;;;;;;4855506;29;20045;-80
2022/01/25 07:49:28;;;;;;;78.00;46.90;;;4.50;99.90;;;;;;4810339;29;20061;-80
2022/01/25 07:51:54;;;;;;;69.03;44.10;;;4.60;99.90;;;;;;4839480;29;20045;-81
2022/01/25 07:54:21;;;;;;;71.43;42.67;;;4.60;99.90;;;;;;4823759;29;20034;-80
2022/01/25 07:56:47;;;;;;;80.10;47.33;;;4.60;99.90;;;;;;4827727;29;20371;-80
2022/01/25 07:59:14;;;;;;;78.88;47.08;;;4.60;99.90;;;;;;4813796;29;20048;-80
2022/01/25 08:01:40;;;;;;;83.82;50.90;;;4.60;99.90;;;;;;4828018;29;20120;-79
2022/01/25 08:04:10;;;;;;;72.83;43.90;;;4.60;99.90;;;;;;4860851;29;20037;-80
2022/01/25 08:06:37;;;;;;;82.43;49.97;;;4.60;99.90;;;;;;4872663;29;20365;-78
2022/01/25 08:09:06;;;;;;;75.75;46.17;;;4.60;99.90;;;;;;4830545;29;20047;-78
2022/01/25 08:11:32;;;;;;;75.63;45.60;;;4.50;99.90;;;;;;4825883;29;20025;-80
2022/01/25 08:14:17;;;;;;;74.93;44.23;;;4.50;99.90;;;;;;4827440;29;20453;-77
2022/01/25 08:16:57;;;;;;;72.63;43.37;;;4.60;99.90;;;;;;4812503;29;20044;-78
2022/01/25 08:19:34;;;;;;;75.55;44.22;;;4.60;99.90;;;;;;4841086;29;20509;-79
2022/01/25 08:22:00;;;;;;;69.78;41.33;;;4.60;99.90;;;;;;4843425;29;20037;-79
2022/01/25 08:24:26;;;;;;;73.95;45.72;;;4.60;99.90;;;;;;4816661;29;20036;-78
2022/01/25 08:26:53;;;;;;;87.93;51.90;;;4.70;99.90;;;;;;4825736;29;20034;-79
2022/01/25 08:29:19;;;;;;;86.38;52.22;;;4.70;99.90;;;;;;4827728;29;20038;-78
2022/01/25 08:31:46;;;;;;;81.00;48.73;;;4.60;99.90;;;;;;4828040;29;20037;-79
2022/01/25 08:34:12;;;;;;;76.90;45.83;;;4.60;99.90;;;;;;4824392;29;20029;-78
2022/01/25 08:36:39;;;;;;;78.03;46.95;;;4.60;99.90;;;;;;4826157;29;20029;-78
2022/01/25 08:39:07;;;;;;;74.90;45.70;;;4.60;99.90;;;;;;4812923;29;20017;-78
2022/01/25 08:41:34;;;;;;;77.13;48.10;;;4.60;99.90;;;;;;4827407;29;20495;-79
2022/01/25 08:44:01;;;;;;;76.50;45.33;;;4.60;99.90;;;;;;4860733;29;20040;-78
2022/01/25 08:46:27;;;;;;;73.95;43.78;;;4.60;99.90;;;;;;4828518;29;20036;-78
2022/01/25 08:48:53;;;;;;;76.30;45.60;;;4.60;99.90;;;;;;4843006;29;20580;-78
2022/01/25 08:51:20;;;;;;;73.17;43.73;;;4.60;99.90;;;;;;4857286;29;20044;-78
2022/01/25 08:53:46;;;;;;;74.57;42.72;;;4.60;99.90;;;;;;4815215;29;20044;-78
2022/01/25 08:56:12;;;;;;;72.37;44.93;;;4.70;99.90;;;;;;4859012;29;20168;-77
2022/01/25 08:58:40;;;;;;;68.75;42.47;;;4.70;99.90;;;;;;4827013;29;20033;-79
2022/01/25 09:01:06;;;;;;;75.78;45.45;;;4.70;99.90;;;;;;4811756;29;20033;-79
2022/01/25 09:03:33;;;;;;;76.20;44.42;;;4.70;99.90;;;;;;4830574;29;20013;-78
2022/01/25 09:06:02;;;;;;;76.65;45.53;;;4.70;99.90;;;;;;4828864;29;20504;-78
2022/01/25 09:08:29;;;;;;;88.57;50.58;;;4.70;99.90;;;;;;4816283;29;20037;-78
2022/01/25 09:11:00;;;;;;;78.23;45.97;;;4.70;99.90;;;;;;4824142;29;20029;-78
2022/01/25 09:13:27;;;;;;;75.15;45.13;;;4.70;99.90;;;;;;4811407;29;20371;-79
2022/01/25 09:15:53;;;;;;;80.28;47.70;;;4.70;99.90;;;;;;4812066;29;20385;-80
2022/01/25 09:18:19;;;;;;;79.32;48.92;;;4.70;99.90;;;;;;4842892;29;20373;-78
2022/01/25 09:20:46;;;;;;;77.60;45.88;;;4.70;99.90;;;;;;4811880;29;20040;-77
2022/01/25 09:23:16;;;;;;;80.88;48.22;;;4.70;99.90;;;;;;4815350;29;20021;-80
2022/01/25 09:25:42;;;;;;;74.93;46.53;;;4.70;99.90;;;;;;4828806;29;20029;-79
2022/01/25 09:28:09;;;;;;;85.60;50.90;;;4.70;99.90;;;;;;4842793;29;20374;-79
2022/01/25 09:30:35;;;;;;;88.28;52.15;;;4.70;99.90;;;;;;4859254;29;20028;-79
2022/01/25 09:33:02;;;;;;;80.30;47.70;;;4.70;99.90;;;;;;4839344;29;20033;-78
2022/01/25 09:35:28;;;;;;;81.43;48.03;;;4.70;99.90;;;;;;4814722;29;20064;-78
2022/01/25 09:37:54;;;;;;;72.53;44.45;;;4.70;99.90;;;;;;4856993;29;20567;-78
2022/01/25 09:40:21;;;;;;;76.70;44.60;;;4.70;99.90;;;;;;4844039;29;20500;-78
2022/01/25 09:42:51;;;;;;;77.68;45.10;;;4.70;99.90;;;;;;4824617;29;20365;-79
2022/01/25 09:45:18;;;;;;;72.63;43.17;;;4.70;99.90;;;;;;4826899;29;20473;-79
2022/01/25 09:47:46;;;;;;;72.15;44.03;;;4.80;99.90;;;;;;4840925;29;20030;-79
2022/01/25 09:50:12;;;;;;;66.28;39.55;;;4.80;99.90;;;;;;4828419;29;20036;-79
2022/01/25 09:52:41;;;;;;;80.97;49.35;;;4.80;99.90;;;;;;4813535;29;20053;-79
2022/01/25 09:55:11;;;;;;;85.75;50.97;;;4.90;99.90;;;;;;4825807;29;20037;-79
2022/01/25 09:57:37;;;;;;;85.57;49.57;;;4.80;99.90;;;;;;4825217;29;20048;-79
2022/01/25 10:00:06;;;;;;;75.07;46.13;;;4.80;99.90;;;;;;4829981;29;20461;-80
2022/01/25 10:05:37;;;;;;;78.95;45.88;;;4.80;99.90;;;;;;4828419;29;20025;-79
2022/01/25 10:08:04;;;;;;;78.60;46.42;;;4.80;99.90;;;;;;4843361;29;20060;-78
2022/01/25 10:10:31;;;;;;;78.28;47.72;;;4.80;99.90;;;;;;4841794;29;20489;-79
2022/01/25 10:13:08;;;;;;;82.68;49.83;;;4.80;99.90;;;;;;4812539;29;20493;-79
2022/01/25 10:15:36;;;;;;;78.78;44.38;;;4.80;99.90;;;;;;4843333;29;20033;-79
2022/01/25 10:18:04;;;;;;;76.75;45.25;;;4.80;99.90;;;;;;4827674;29;20469;-79
2022/01/25 10:20:40;;;;;;;81.43;46.75;;;4.90;99.90;;;;;;4823491;29;20033;-79
2022/01/25 10:23:12;;;;;;;77.25;46.60;;;4.90;99.90;;;;;;4828493;29;20041;-79
2022/01/25 10:25:42;;;;;;;80.07;46.38;;;4.90;99.90;;;;;;4841793;29;20034;-79
2022/01/25 10:28:11;;;;;;;75.18;45.00;;;4.90;99.90;;;;;;4827504;29;20502;-79
2022/01/25 10:30:54;;;;;;;74.80;44.30;;;5.00;99.90;;;;;;4843577;29;20507;-79
2022/01/25 10:33:30;;;;;;;79.22;46.03;;;5.00;99.90;;;;;;4840386;29;20507;-79
2022/01/25 10:36:19;;;;;;;74.20;43.88;;;5.00;99.90;;;;;;4829651;29;20486;-79
2022/01/25 10:38:48;;;;;;;74.73;43.60;;;5.00;99.90;;;;;;4838585;29;20070;-79
2022/01/25 10:41:17;;;;;;;77.95;44.38;;;5.00;99.90;;;;;;4857144;29;20369;-79
2022/01/25 10:43:48;;;;;;;87.03;52.10;;;5.10;99.90;;;;;;4843937;29;20056;-78
2022/01/25 10:46:27;;;;;;;85.50;51.45;;;5.00;99.90;;;;;;4845287;29;20029;-78
2022/01/25 10:49:04;;;;;;;80.07;48.08;;;5.00;99.90;;;;;;4830132;29;21257;-78
2022/01/25 10:51:35;;;;;;;86.15;51.22;;;5.00;99.90;;;;;;4859845;29;20041;-77
2022/01/25 10:54:06;;;;;;;87.15;50.47;;;5.00;99.90;;;;;;4813950;29;20033;-78
2022/01/25 10:56:39;;;;;;;76.28;45.22;;;5.00;99.90;;;;;;4843375;29;20591;-78
2022/01/25 10:59:08;;;;;;;74.78;42.60;;;5.00;99.90;;;;;;4827928;29;20412;-78
2022/01/25 11:01:37;;;;;;;82.30;48.28;;;5.10;99.90;;;;;;4827460;29;20040;-78
2022/01/25 11:04:06;;;;;;;81.97;48.17;;;5.10;99.90;;;;;;4834655;29;20021;-78
2022/01/25 11:06:33;;;;;;;79.97;46.35;;;5.10;99.90;;;;;;4843125;29;20029;-78
2022/01/25 11:09:04;;;;;;;84.68;49.08;;;5.10;99.90;;;;;;4860397;29;20041;-78
2022/01/25 11:11:46;;;;;;;80.25;45.72;;;5.10;99.90;;;;;;4828901;29;20033;-78
2022/01/25 11:16:59;;;;;;;71.47;42.10;;;5.10;99.90;;;;;;4844613;29;20033;-78
2022/01/25 11:19:26;;;;;;;74.10;45.97;;;5.20;99.90;;;;;;4815176;29;20044;-78
2022/01/25 11:21:54;;;;;;;75.70;43.67;;;5.20;99.90;;;;;;4841783;29;20511;-77
2022/01/25 11:24:23;;;;;;;81.22;44.78;;;5.20;99.90;;;;;;4827713;29;20040;-78
2022/01/25 11:26:51;;;;;;;78.68;45.75;;;5.20;99.90;;;;;;4841645;29;20036;-77
2022/01/25 11:29:17;;;;;;;76.67;45.40;;;5.20;99.90;;;;;;4829623;29;20041;-77
2022/01/25 11:31:54;;;;;;;77.22;45.67;;;5.20;99.90;;;;;;4844198;29;20037;-77
2022/01/25 11:34:26;;;;;;;77.60;46.90;;;5.20;99.90;;;;;;4860506;29;20037;-77
2022/01/25 11:36:55;;;;;;;77.87;44.53;;;5.20;99.90;;;;;;4811552;29;20041;-77
2022/01/25 11:39:25;;;;;;;77.43;45.53;;;5.20;99.90;;;;;;4812273;29;20085;-77
2022/01/25 11:42:00;;;;;;;76.70;43.67;;;5.20;99.90;;;;;;4813478;29;20028;-77
2022/01/25 11:44:27;;;;;;;73.28;41.78;;;5.20;99.90;;;;;;4844193;29;20052;-78
2022/01/25 11:47:06;;;;;;;72.00;42.83;;;5.20;99.90;;;;;;4858413;29;20022;-77
2022/01/25 11:49:33;;;;;;;73.55;42.90;;;5.20;99.90;;;;;;4856632;29;20488;-77
2022/01/25 11:52:13;;;;;;;71.50;42.43;;;5.20;99.90;;;;;;4829425;29;20040;-77
2022/01/25 11:54:41;;;;;;;74.13;42.88;;;5.30;99.90;;;;;;4826918;29;20037;-77
2022/01/25 11:57:21;;;;;;;74.15;43.80;;;5.30;99.90;;;;;;4809126;29;20033;-78
2022/01/25 11:59:57;;;;;;;74.30;44.10;;;5.30;99.90;;;;;;4827316;29;20063;-78
2022/01/25 12:02:44;;;;;;;74.30;43.35;;;5.30;99.90;;;;;;4844492;29;20044;-78
2022/01/25 12:05:14;;;;;;;76.28;44.42;;;5.30;99.90;;;;;;4829715;29;20041;-78
2022/01/25 12:08:08;;;;;;;74.05;43.60;;;5.20;99.90;;;;;;4843593;29;20390;-78
2022/01/25 12:10:40;;;;;;;75.15;44.25;;;5.20;99.90;;;;;;4813515;29;20032;-77
2022/01/25 12:13:26;;;;;;;72.35;44.33;;;5.10;99.90;;;;;;4811031;29;20503;-77
2022/01/25 12:16:26;;;;;;;75.65;46.42;;;5.10;99.90;;;;;;4857749;29;20045;-78
2022/01/25 12:18:59;;;;;;;79.35;47.47;;;5.10;99.90;;;;;;4813882;29;20577;-77
2022/01/25 12:21:46;;;;;;;76.00;44.53;;;5.10;99.90;;;;;;4828339;29;20045;-78
2022/01/25 12:24:27;;;;;;;73.30;41.70;;;5.00;99.90;;;;;;4827723;29;20032;-79
2022/01/25 12:27:08;;;;;;;69.88;42.10;;;5.00;99.90;;;;;;4842741;29;20046;-79
2022/01/25 12:29:38;;;;;;;66.75;39.83;;;5.00;99.90;;;;;;4825063;29;20037;-79
2022/01/25 12:32:28;;;;;;;68.32;40.40;;;5.00;99.90;;;;;;4828385;29;20032;-79
2022/01/25 12:35:02;;;;;;;72.50;42.67;;;5.10;99.90;;;;;;4830230;29;20036;-79
2022/01/25 12:37:54;;;;;;;72.95;43.38;;;5.10;99.90;;;;;;4829001;29;20029;-79
2022/01/25 12:40:26;;;;;;;74.30;44.47;;;5.10;99.90;;;;;;4838629;29;20040;-80
2022/01/25 12:42:56;;;;;;;73.43;41.63;;;5.10;99.90;;;;;;4813748;29;20054;-80
2022/01/25 12:45:27;;;;;;;67.55;40.15;;;5.10;99.90;;;;;;4813940;29;20037;-79
2022/01/25 12:48:03;;;;;;;62.10;37.05;;;5.10;99.90;;;;;;4830681;29;20067;-79
2022/01/25 12:50:31;;;;;;;68.20;39.13;;;5.10;99.90;;;;;;4826128;29;20053;-79
2022/01/25 12:53:02;;;;;;;66.90;38.22;;;5.10;99.90;;;;;;4829973;29;20037;-79
2022/01/25 12:55:36;;;;;;;67.25;39.53;;;5.10;99.90;;;;;;4826986;29;20052;-78
2022/01/25 12:58:04;;;;;;;70.90;41.25;;;5.10;99.90;;;;;;4830983;29;20041;-78
2022/01/25 13:00:37;;;;;;;68.70;41.05;;;5.10;99.90;;;;;;4827981;29;20057;-78
2022/01/25 13:03:29;;;;;;;71.40;43.58;;;5.10;99.90;;;;;;4858035;29;20045;-80
2022/01/25 13:05:57;;;;;;;64.03;39.15;;;5.20;99.90;;;;;;4827878;29;20029;-77
2022/01/25 13:08:31;;;;;;;68.18;41.58;;;5.10;99.90;;;;;;4808952;29;20036;-76
2022/01/25 13:11:24;;;;;;;66.28;39.20;;;5.10;99.90;;;;;;4825182;29;20029;-77
2022/01/25 13:16:38;;;;;;;69.53;42.03;;;5.10;99.90;;;;;;4826424;29;19930;-78
2022/01/25 13:19:04;;;;;;;68.68;41.58;;;5.10;99.90;;;;;;4859551;29;20032;-77
2022/01/25 13:21:44;;;;;;;65.10;39.53;;;5.10;99.90;;;;;;4839507;29;20031;-77
2022/01/25 13:24:15;;;;;;;69.13;40.85;;;5.10;99.90;;;;;;4840416;29;20045;-79
2022/01/25 13:26:54;;;;;;;64.72;38.33;;;5.10;99.90;;;;;;4839391;29;20531;-81
2022/01/25 13:32:19;;;;;;;59.22;35.40;;;5.20;99.90;;;;;;4826672;29;20504;-77
2022/01/25 13:35:03;;;;;;;75.85;44.85;;;5.20;99.90;;;;;;4840639;29;20034;-79
2022/01/25 13:37:29;;;;;;;75.43;43.28;;;5.20;99.90;;;;;;4826212;29;20417;-79
2022/01/25 13:39:59;;;;;;;76.68;44.75;;;5.20;99.90;;;;;;4812162;29;20048;-79
2022/01/25 13:42:36;;;;;;;71.15;42.38;;;5.10;99.90;;;;;;4825351;29;20048;-79
2022/01/25 13:48:09;;;;;;;68.00;39.60;;;5.10;99.90;;;;;;4841956;29;20033;-80
2022/01/25 13:50:39;;;;;;;72.63;42.80;;;5.10;99.90;;;;;;4827650;29;20532;-79
2022/01/25 13:53:07;;;;;;;67.80;40.70;;;5.20;99.90;;;;;;4815281;29;20035;-82
2022/01/25 13:55:35;;;;;;;74.47;44.10;;;5.10;99.90;;;;;;4811029;29;20113;-79
2022/01/25 13:58:17;;;;;;;66.90;38.97;;;5.10;99.90;;;;;;4841279;29;20037;-79
2022/01/25 14:00:43;;;;;;;78.78;43.80;;;5.10;99.90;;;;;;4825604;29;20036;-79
2022/01/25 14:03:10;;;;;;;71.75;42.80;;;5.10;99.90;;;;;;4809152;29;20053;-79
2022/01/25 14:05:37;;;;;;;77.55;47.15;;;5.10;99.90;;;;;;4827351;29;20326;-79
2022/01/25 14:08:03;;;;;;;75.43;44.92;;;5.10;99.90;;;;;;4840121;29;20029;-79
2022/01/25 14:10:29;;;;;;;66.82;40.47;;;5.00;99.90;;;;;;4824448;29;20385;-79
2022/01/25 14:21:41;;;;;;;65.95;39.00;;;5.00;99.90;;;;;;4822401;29;20037;-78
2022/01/25 14:24:07;;;;;;;62.45;36.53;;;5.00;99.90;;;;;;4812249;29;20536;-79
2022/01/25 14:26:34;;;;;;;64.72;37.97;;;5.00;99.90;;;;;;4822480;29;20048;-77
2022/01/25 14:29:17;;;;;;;62.90;37.30;;;5.00;99.90;;;;;;4839709;29;20057;-79
2022/01/25 14:31:46;;;;;;;69.88;39.70;;;5.10;99.90;;;;;;4810137;29;20368;-78
2022/01/25 14:34:15;;;;;;;69.45;40.58;;;5.10;99.90;;;;;;4808924;29;20029;-76
2022/01/25 14:36:46;;;;;;;84.00;48.13;;;5.10;99.90;;;;;;4840703;29;20040;-82
2022/01/25 14:39:17;;;;;;;81.38;45.97;;;5.10;99.90;;;;;;4806903;29;20053;-79
2022/01/25 14:41:47;;;;;;;96.43;53.33;;;5.10;99.90;;;;;;4839428;29;20033;-79
2022/01/25 14:44:22;;;;;;;88.13;50.70;;;5.10;99.90;;;;;;4826381;29;20040;-79
2022/01/25 14:46:52;;;;;;;85.13;48.72;;;5.00;99.90;;;;;;4823723;29;20046;-80
2022/01/25 14:49:22;;;;;;;79.07;45.10;;;5.00;99.90;;;;;;4824072;29;20025;-79
2022/01/25 14:51:52;;;;;;;79.53;43.25;;;5.00;99.90;;;;;;4836104;29;20041;-79